Aviation Digital Data Service (ADDS)

Output produced by METARs form (0331 UTC 28 June 2017)
found at http://www.aviationweather.gov/adds/metars/
 
KSAV 280253Z 00000KT 10SM FEW005 FEW140 BKN210 OVC240 23/20 A3006 RMK AO2 SLP177 T02280200 53010
KSVN 280258Z AUTO 00000KT 10SM CLR 24/21 A3002 RMK AO2 SLP168 T02360206
KLHW 280258Z AUTO 00000KT 10SM CLR 22/21 A3003 RMK AO2 SLP172 T02240207 $
KTBR 280315Z AUTO 00000KT 10SM CLR 23/23 A3006 RMK AO2 T02320232
KVDI 280315Z AUTO 00000KT 10SM CLR 23/21 A3008 RMK AO2
KJYL 280315Z AUTO 00000KT 10SM CLR 23/23 A3007 RMK AO2 T02330227
KDBN 280314Z AUTO 00000KT 7SM CLR 21/20 A3008 RMK AO2
KJES 280315Z AUTO 00000KT 10SM CLR 22/20 A3006 RMK AO2
KSSI 280253Z AUTO 15005KT 10SM FEW017 26/23 A3003 RMK AO2 SLP171 60000 T02560228 53003
KBQK 280315Z AUTO 00000KT 10SM CLR 22/22 A3005 RMK AO2
KAYS 280315Z AUTO 00000KT 5SM BR CLR 23/23 A3006 RMK AO2 T02310231
KNBC 280256Z AUTO 00000KT 10SM FEW120 23/22 A3005 RMK AO2 SLP177 LAST T02280217 52015 $
KHXD 280315Z AUTO 00000KT 10SM FEW022 25/23 A3006 RMK AO2